Time;durP1;ratioP1;P1;durP2;ratioP2;P2;SDS_P1;SDS_P2;PMS_P1;PMS_P2;Temp;Humidity;BMP_temperature;BMP_pressure;BME280_temperature;BME280_humidity;BME280_pressure;Samples;Min_cycle;Max_cycle;Signal;HPM_P1;HPM_P2
2021/10/05 00:02:08;;;;;;;8.30;2.30;;;;;;;;;;5043201;28;20201;-72
2021/10/05 00:04:33;;;;;;;6.43;2.70;;;;;;;;;;5032195;28;20186;-72
2021/10/05 00:06:59;;;;;;;14.35;3.15;;;;;;;;;;5044607;28;20181;-72
2021/10/05 00:09:24;;;;;;;8.05;2.70;;;;;;;;;;5029636;28;20217;-72
2021/10/05 00:11:49;;;;;;;8.20;2.42;;;;;;;;;;5041769;28;20196;-72
2021/10/05 00:14:15;;;;;;;8.65;2.75;;;;;;;;;;5042134;28;20211;-72
2021/10/05 00:16:40;;;;;;;7.65;2.60;;;;;;;;;;5036474;28;20275;-72
2021/10/05 00:19:05;;;;;;;5.68;2.30;;;;;;;;;;5038343;28;20592;-72
2021/10/05 00:21:31;;;;;;;9.05;2.92;;;;;;;;;;5037454;28;20196;-73
2021/10/05 00:23:56;;;;;;;8.75;2.70;;;;;;;;;;5040997;28;20197;-72
2021/10/05 00:26:21;;;;;;;7.72;3.03;;;;;;;;;;5025197;28;20564;-72
2021/10/05 00:28:47;;;;;;;6.80;3.00;;;;;;;;;;5040572;28;20209;-73
2021/10/05 00:31:12;;;;;;;6.28;2.95;;;;;;;;;;5032956;28;20308;-73
2021/10/05 00:33:37;;;;;;;4.68;2.42;;;;;;;;;;5038010;28;20589;-73
2021/10/05 00:36:03;;;;;;;11.65;3.20;;;;;;;;;;5033379;28;20244;-73
2021/10/05 00:38:29;;;;;;;8.55;3.38;;;;;;;;;;5040609;28;20184;-73
2021/10/05 00:40:55;;;;;;;6.07;2.92;;;;;;;;;;5039368;28;20269;-73
2021/10/05 00:43:20;;;;;;;6.28;2.90;;;;;;;;;;5035376;28;20225;-73
2021/10/05 00:45:45;;;;;;;4.85;2.75;;;;;;;;;;5038435;28;20688;-73
2021/10/05 00:48:11;;;;;;;7.05;2.55;;;;;;;;;;5030360;28;20267;-73
2021/10/05 00:50:36;;;;;;;7.55;2.50;;;;;;;;;;5034423;28;20181;-73
2021/10/05 00:53:02;;;;;;;4.43;2.80;;;;;;;;;;5031776;28;20189;-73
2021/10/05 00:55:27;;;;;;;10.00;3.05;;;;;;;;;;5038200;28;20194;-73
2021/10/05 00:57:53;;;;;;;6.35;3.15;;;;;;;;;;5040296;28;20255;-73
2021/10/05 01:00:21;;;;;;;9.25;3.03;;;;;;;;;;5048151;28;20178;-73
2021/10/05 01:02:47;;;;;;;5.97;3.67;;;;;;;;;;5038054;28;20565;-73
2021/10/05 01:05:13;;;;;;;8.95;2.65;;;;;;;;;;5042270;28;20185;-72
2021/10/05 01:07:38;;;;;;;6.13;2.50;;;;;;;;;;5032638;28;20266;-73
2021/10/05 01:10:04;;;;;;;7.00;2.80;;;;;;;;;;5044217;28;20225;-73
2021/10/05 01:12:30;;;;;;;6.78;2.80;;;;;;;;;;5035153;28;20190;-73
2021/10/05 01:14:55;;;;;;;7.10;2.85;;;;;;;;;;5045289;28;20251;-73
2021/10/05 01:17:20;;;;;;;8.57;2.95;;;;;;;;;;5045716;28;20173;-73
2021/10/05 01:19:46;;;;;;;6.95;3.67;;;;;;;;;;5038341;28;20185;-72
2021/10/05 01:22:11;;;;;;;9.50;3.58;;;;;;;;;;5046490;28;20519;-72
2021/10/05 01:24:37;;;;;;;8.35;3.38;;;;;;;;;;5034164;28;20185;-73
2021/10/05 01:27:03;;;;;;;7.28;2.67;;;;;;;;;;5040701;28;20244;-73
2021/10/05 01:29:31;;;;;;;8.98;2.80;;;;;;;;;;5036917;28;20209;-73
2021/10/05 01:31:59;;;;;;;7.97;3.38;;;;;;;;;;5045630;28;20197;-73
2021/10/05 01:34:25;;;;;;;10.90;3.47;;;;;;;;;;5034481;28;20191;-73
2021/10/05 01:36:53;;;;;;;9.10;3.33;;;;;;;;;;5043685;28;20243;-73
2021/10/05 01:39:29;;;;;;;9.68;3.50;;;;;;;;;;5034858;28;20740;-73
2021/10/05 01:41:59;;;;;;;7.50;4.05;;;;;;;;;;5046197;28;20633;-73
2021/10/05 01:44:24;;;;;;;9.50;3.60;;;;;;;;;;5035638;28;20200;-73
2021/10/05 01:46:50;;;;;;;8.07;3.85;;;;;;;;;;5043706;28;20185;-73
2021/10/05 01:49:17;;;;;;;6.93;3.53;;;;;;;;;;5037945;28;20197;-72
2021/10/05 01:51:43;;;;;;;8.18;3.83;;;;;;;;;;5046399;28;20629;-72
2021/10/05 01:54:09;;;;;;;8.07;3.72;;;;;;;;;;5044665;28;20255;-73
2021/10/05 01:56:35;;;;;;;10.32;3.72;;;;;;;;;;5038727;28;20189;-73
2021/10/05 01:59:00;;;;;;;7.97;3.67;;;;;;;;;;5041205;28;20182;-72
2021/10/05 02:01:25;;;;;;;8.52;3.97;;;;;;;;;;5034703;28;20277;-72
2021/10/05 02:03:51;;;;;;;9.60;3.80;;;;;;;;;;5038016;28;20263;-73
2021/10/05 02:06:17;;;;;;;10.27;4.40;;;;;;;;;;5029589;28;20629;-72
2021/10/05 02:08:42;;;;;;;7.70;3.83;;;;;;;;;;5044085;28;20252;-72
2021/10/05 02:11:07;;;;;;;6.68;4.28;;;;;;;;;;5035742;28;20812;-73
2021/10/05 02:13:34;;;;;;;8.43;4.00;;;;;;;;;;5035430;28;20482;-73
2021/10/05 02:16:00;;;;;;;8.38;3.95;;;;;;;;;;5035666;28;20201;-73
2021/10/05 02:18:25;;;;;;;11.70;4.30;;;;;;;;;;5047096;28;20211;-72
2021/10/05 02:20:50;;;;;;;9.73;4.33;;;;;;;;;;5036113;28;20228;-73
2021/10/05 02:23:16;;;;;;;9.20;4.43;;;;;;;;;;5038461;28;20234;-73
2021/10/05 02:25:41;;;;;;;8.73;5.00;;;;;;;;;;5045751;28;20186;-72
2021/10/05 02:28:06;;;;;;;8.45;4.53;;;;;;;;;;5039545;28;20200;-73
2021/10/05 02:30:32;;;;;;;8.40;4.67;;;;;;;;;;5041833;28;20189;-73
2021/10/05 02:32:57;;;;;;;8.20;4.93;;;;;;;;;;5035914;28;20181;-73
2021/10/05 02:35:22;;;;;;;10.70;5.10;;;;;;;;;;5041301;28;20195;-73
2021/10/05 02:37:48;;;;;;;11.13;5.07;;;;;;;;;;5039567;28;20274;-73
2021/10/05 02:40:13;;;;;;;8.73;5.27;;;;;;;;;;5040944;28;20192;-73
2021/10/05 02:42:39;;;;;;;10.80;5.78;;;;;;;;;;5036126;28;20208;-73
2021/10/05 02:45:06;;;;;;;8.60;5.55;;;;;;;;;;5038783;28;20193;-73
2021/10/05 02:47:32;;;;;;;13.18;6.00;;;;;;;;;;5037486;28;20198;-73
2021/10/05 02:49:57;;;;;;;11.52;6.60;;;;;;;;;;5042601;28;20213;-73
2021/10/05 02:52:23;;;;;;;11.60;6.30;;;;;;;;;;5043273;28;20649;-73
2021/10/05 02:54:49;;;;;;;8.77;5.10;;;;;;;;;;5031555;28;20200;-73
2021/10/05 02:57:17;;;;;;;10.02;5.72;;;;;;;;;;5032879;28;20312;-73
2021/10/05 02:59:43;;;;;;;12.52;5.97;;;;;;;;;;5032368;28;20197;-73
2021/10/05 03:02:09;;;;;;;9.07;5.75;;;;;;;;;;5037370;28;20186;-73
2021/10/05 03:04:35;;;;;;;7.90;5.78;;;;;;;;;;5028994;28;20621;-73
2021/10/05 03:07:00;;;;;;;9.10;5.90;;;;;;;;;;5043227;28;20190;-73
2021/10/05 03:09:26;;;;;;;8.82;5.47;;;;;;;;;;5035901;28;20286;-73
2021/10/05 03:11:51;;;;;;;12.88;6.00;;;;;;;;;;5041016;28;20205;-73
2021/10/05 03:14:17;;;;;;;10.15;5.60;;;;;;;;;;5035222;28;20186;-73
2021/10/05 03:16:42;;;;;;;14.77;5.63;;;;;;;;;;5041086;28;20817;-73
2021/10/05 03:19:08;;;;;;;9.68;5.85;;;;;;;;;;5030081;28;20609;-73
2021/10/05 03:21:33;;;;;;;10.13;5.85;;;;;;;;;;5040481;28;20193;-74
2021/10/05 03:23:59;;;;;;;8.48;5.47;;;;;;;;;;5045208;28;20211;-73
2021/10/05 03:26:24;;;;;;;11.10;5.80;;;;;;;;;;5035097;28;20280;-71
2021/10/05 03:28:50;;;;;;;8.43;5.60;;;;;;;;;;5046549;28;20205;-73
2021/10/05 03:31:15;;;;;;;10.27;5.40;;;;;;;;;;5032517;28;20554;-72
2021/10/05 03:33:43;;;;;;;11.07;5.80;;;;;;;;;;5043702;28;20185;-73
2021/10/05 03:36:09;;;;;;;13.43;6.22;;;;;;;;;;5036229;28;20251;-72
2021/10/05 03:38:36;;;;;;;8.45;5.50;;;;;;;;;;5040853;28;20599;-73
2021/10/05 03:41:02;;;;;;;13.57;5.53;;;;;;;;;;5034706;28;20200;-73
2021/10/05 03:43:27;;;;;;;9.00;5.50;;;;;;;;;;5033639;28;20194;-73
2021/10/05 03:45:53;;;;;;;8.63;5.40;;;;;;;;;;5034605;28;20620;-72
2021/10/05 03:48:19;;;;;;;9.27;5.90;;;;;;;;;;5043460;28;20201;-73
2021/10/05 03:50:45;;;;;;;9.63;6.03;;;;;;;;;;5029045;28;20513;-73
2021/10/05 03:53:15;;;;;;;10.87;6.30;;;;;;;;;;5041461;28;20189;-73
2021/10/05 03:55:46;;;;;;;8.53;5.60;;;;;;;;;;5042432;28;20165;-73
2021/10/05 03:58:12;;;;;;;9.43;5.30;;;;;;;;;;5032928;28;20201;-73
2021/10/05 04:00:37;;;;;;;9.15;5.80;;;;;;;;;;5040769;28;20273;-73
2021/10/05 04:03:03;;;;;;;10.20;5.55;;;;;;;;;;5034144;28;20227;-73
2021/10/05 04:05:28;;;;;;;10.93;5.78;;;;;;;;;;5042042;28;20260;-73
2021/10/05 04:07:53;;;;;;;10.13;5.43;;;;;;;;;;5033619;28;20654;-73
2021/10/05 04:10:19;;;;;;;10.55;5.43;;;;;;;;;;5040384;28;20637;-74
2021/10/05 04:12:44;;;;;;;12.57;5.72;;;;;;;;;;5030030;28;20203;-73
2021/10/05 04:15:09;;;;;;;9.10;5.65;;;;;;;;;;5042267;28;20189;-74
2021/10/05 04:17:35;;;;;;;7.93;5.30;;;;;;;;;;5034297;28;20541;-74
2021/10/05 04:20:00;;;;;;;13.35;5.97;;;;;;;;;;5042062;28;20215;-73
2021/10/05 04:22:26;;;;;;;9.10;5.55;;;;;;;;;;5030363;28;20214;-73
2021/10/05 04:24:51;;;;;;;9.73;6.18;;;;;;;;;;5041257;28;20272;-73
2021/10/05 04:27:17;;;;;;;9.05;5.65;;;;;;;;;;5039849;28;20244;-74
2021/10/05 04:29:42;;;;;;;9.70;5.65;;;;;;;;;;5036774;28;20207;-74
2021/10/05 04:32:08;;;;;;;7.72;5.45;;;;;;;;;;5040246;28;20652;-73
2021/10/05 04:34:34;;;;;;;14.88;6.05;;;;;;;;;;5033860;28;20189;-73
2021/10/05 04:37:00;;;;;;;9.45;6.18;;;;;;;;;;5042240;28;20242;-73
2021/10/05 04:39:25;;;;;;;8.68;5.45;;;;;;;;;;5028749;28;20273;-73
2021/10/05 04:41:50;;;;;;;10.23;5.63;;;;;;;;;;5036615;28;20190;-73
2021/10/05 04:44:16;;;;;;;9.10;5.60;;;;;;;;;;5030177;28;20200;-73
2021/10/05 04:46:41;;;;;;;8.48;5.57;;;;;;;;;;5042388;28;20652;-73
2021/10/05 04:49:06;;;;;;;7.68;5.30;;;;;;;;;;5024879;28;20205;-73
2021/10/05 04:51:33;;;;;;;11.60;5.20;;;;;;;;;;5040079;28;20174;-73
2021/10/05 04:53:59;;;;;;;8.57;5.85;;;;;;;;;;5027697;28;20190;-73
2021/10/05 04:56:25;;;;;;;10.57;6.13;;;;;;;;;;5037035;28;20594;-73
2021/10/05 04:58:50;;;;;;;9.45;5.40;;;;;;;;;;5033387;28;20174;-73
2021/10/05 05:01:15;;;;;;;9.95;5.15;;;;;;;;;;5035117;28;20189;-73
2021/10/05 05:03:41;;;;;;;11.32;5.80;;;;;;;;;;5041241;28;20209;-73
2021/10/05 05:06:06;;;;;;;11.82;5.85;;;;;;;;;;5034420;28;20534;-74
2021/10/05 05:08:31;;;;;;;11.18;6.05;;;;;;;;;;5033006;28;20320;-73
2021/10/05 05:10:57;;;;;;;10.90;5.50;;;;;;;;;;5032778;28;20549;-73
2021/10/05 05:13:22;;;;;;;9.07;6.28;;;;;;;;;;5035716;28;20186;-73
2021/10/05 05:15:47;;;;;;;12.73;5.43;;;;;;;;;;5027420;28;20593;-73
2021/10/05 05:18:13;;;;;;;11.15;6.40;;;;;;;;;;5038638;28;20284;-73
2021/10/05 05:20:38;;;;;;;10.43;5.95;;;;;;;;;;5026655;28;20543;-72
2021/10/05 05:23:03;;;;;;;8.80;5.55;;;;;;;;;;5034351;28;20191;-73
2021/10/05 05:25:29;;;;;;;9.00;5.45;;;;;;;;;;5031655;28;20178;-73
2021/10/05 05:27:54;;;;;;;11.57;5.88;;;;;;;;;;5037148;28;20213;-73
2021/10/05 05:30:20;;;;;;;11.40;6.05;;;;;;;;;;5040482;28;20268;-73
2021/10/05 05:32:45;;;;;;;9.25;5.65;;;;;;;;;;5028700;28;20212;-73
2021/10/05 05:35:11;;;;;;;6.40;5.07;;;;;;;;;;5039792;28;20213;-73
2021/10/05 05:37:36;;;;;;;6.20;5.45;;;;;;;;;;5031572;28;20273;-73
2021/10/05 05:40:02;;;;;;;10.20;5.63;;;;;;;;;;5042044;28;20216;-73
2021/10/05 05:42:27;;;;;;;8.30;5.57;;;;;;;;;;5027977;28;20194;-74
2021/10/05 05:44:53;;;;;;;7.95;5.50;;;;;;;;;;5034174;28;24574;-73
2021/10/05 05:47:18;;;;;;;8.73;6.03;;;;;;;;;;5030429;28;20194;-74
2021/10/05 05:49:44;;;;;;;11.50;5.50;;;;;;;;;;5039990;28;20221;-73
2021/10/05 05:52:09;;;;;;;12.88;6.18;;;;;;;;;;5033244;28;20810;-73
2021/10/05 05:54:34;;;;;;;11.18;5.60;;;;;;;;;;5037239;28;20519;-73
2021/10/05 05:57:00;;;;;;;16.30;6.00;;;;;;;;;;5029046;28;20225;-73
2021/10/05 05:59:25;;;;;;;8.80;5.53;;;;;;;;;;5036042;28;20194;-73
2021/10/05 06:01:50;;;;;;;10.15;5.90;;;;;;;;;;5041175;28;20383;-73
2021/10/05 06:04:16;;;;;;;7.53;5.43;;;;;;;;;;5029851;28;20255;-73
2021/10/05 06:06:41;;;;;;;8.55;5.70;;;;;;;;;;5043379;28;20610;-73
2021/10/05 06:09:07;;;;;;;9.70;5.75;;;;;;;;;;5029562;28;20355;-73
2021/10/05 06:11:35;;;;;;;11.25;6.10;;;;;;;;;;5038158;28;20637;-73
2021/10/05 06:14:00;;;;;;;10.63;5.15;;;;;;;;;;5033932;28;20584;-74
2021/10/05 06:16:26;;;;;;;8.23;5.05;;;;;;;;;;5039529;28;20265;-73
2021/10/05 06:18:51;;;;;;;10.63;5.78;;;;;;;;;;5030541;28;20273;-73
2021/10/05 06:21:17;;;;;;;6.35;5.07;;;;;;;;;;5037703;28;20201;-73
2021/10/05 06:23:42;;;;;;;12.63;5.50;;;;;;;;;;5028426;28;20186;-73
2021/10/05 06:26:08;;;;;;;8.85;5.15;;;;;;;;;;5039753;28;20491;-73
2021/10/05 06:28:34;;;;;;;10.18;5.28;;;;;;;;;;5035573;28;20218;-73
2021/10/05 06:31:01;;;;;;;6.50;5.10;;;;;;;;;;5039481;28;20185;-73
2021/10/05 06:33:26;;;;;;;9.63;4.68;;;;;;;;;;5037817;28;20262;-73
2021/10/05 06:35:52;;;;;;;7.70;5.10;;;;;;;;;;5029689;28;20228;-73
2021/10/05 06:38:17;;;;;;;6.82;4.50;;;;;;;;;;5040249;28;20193;-73
2021/10/05 06:40:43;;;;;;;7.07;4.38;;;;;;;;;;5037344;28;20182;-73
2021/10/05 06:43:09;;;;;;;7.05;4.65;;;;;;;;;;5034322;28;20220;-73
2021/10/05 06:45:35;;;;;;;12.15;5.53;;;;;;;;;;5037227;28;20219;-74
2021/10/05 06:48:01;;;;;;;8.77;4.70;;;;;;;;;;5035748;28;20521;-73
2021/10/05 06:50:27;;;;;;;11.23;4.80;;;;;;;;;;5030348;28;20216;-72
2021/10/05 06:52:53;;;;;;;7.33;5.13;;;;;;;;;;5036664;28;20197;-72
2021/10/05 06:55:19;;;;;;;7.27;5.20;;;;;;;;;;5033952;28;20232;-72
2021/10/05 06:57:45;;;;;;;7.50;4.80;;;;;;;;;;5036641;28;20229;-72
2021/10/05 07:00:18;;;;;;;9.32;5.38;;;;;;;;;;5039730;28;20273;-73
2021/10/05 07:02:45;;;;;;;8.68;5.18;;;;;;;;;;5046060;28;20166;-72
2021/10/05 07:05:12;;;;;;;7.57;5.23;;;;;;;;;;5039286;28;20254;-72
2021/10/05 07:07:41;;;;;;;8.55;5.07;;;;;;;;;;5028737;28;20394;-72
2021/10/05 07:10:08;;;;;;;6.15;4.82;;;;;;;;;;5038129;28;20229;-73
2021/10/05 07:12:34;;;;;;;5.80;4.80;;;;;;;;;;5031581;28;20209;-72
2021/10/05 07:15:01;;;;;;;7.43;5.03;;;;;;;;;;5041051;28;20271;-72
2021/10/05 07:17:26;;;;;;;9.63;4.82;;;;;;;;;;5031245;28;20899;-72
2021/10/05 07:19:52;;;;;;;8.17;4.90;;;;;;;;;;5037442;28;20217;-73
2021/10/05 07:22:17;;;;;;;5.80;4.97;;;;;;;;;;5033448;28;20298;-75
2021/10/05 07:24:42;;;;;;;10.25;5.05;;;;;;;;;;5039495;28;20373;-75
2021/10/05 07:27:08;;;;;;;9.07;5.63;;;;;;;;;;5034361;28;20274;-74
2021/10/05 07:29:33;;;;;;;7.05;5.43;;;;;;;;;;5037250;28;20260;-74
2021/10/05 07:31:58;;;;;;;8.03;5.27;;;;;;;;;;5031941;28;20190;-74
2021/10/05 07:34:24;;;;;;;10.75;5.50;;;;;;;;;;5036148;28;20192;-73
2021/10/05 07:36:49;;;;;;;7.75;4.93;;;;;;;;;;5035174;28;20186;-73
2021/10/05 07:39:15;;;;;;;10.73;6.03;;;;;;;;;;5029568;28;20193;-74
2021/10/05 07:41:43;;;;;;;6.07;5.28;;;;;;;;;;5038830;28;20183;-73
2021/10/05 07:44:09;;;;;;;7.53;5.32;;;;;;;;;;5026152;28;20193;-73
2021/10/05 07:46:34;;;;;;;8.50;5.88;;;;;;;;;;5038794;28;20188;-74
2021/10/05 07:48:59;;;;;;;8.82;5.82;;;;;;;;;;5030491;28;20291;-73
2021/10/05 07:51:25;;;;;;;5.43;4.90;;;;;;;;;;5045987;28;20668;-74
2021/10/05 07:53:50;;;;;;;7.82;5.68;;;;;;;;;;5034289;28;20195;-73
2021/10/05 07:56:17;;;;;;;5.95;5.32;;;;;;;;;;5044084;28;20590;-73
2021/10/05 07:58:42;;;;;;;6.63;5.25;;;;;;;;;;5030995;28;20177;-73
2021/10/05 08:01:07;;;;;;;6.03;4.72;;;;;;;;;;5042510;28;20280;-73
2021/10/05 08:03:33;;;;;;;9.10;5.47;;;;;;;;;;5033297;28;20682;-73
2021/10/05 08:05:58;;;;;;;7.30;4.78;;;;;;;;;;5043205;28;20747;-73
2021/10/05 08:08:23;;;;;;;5.50;4.85;;;;;;;;;;5039097;28;20252;-74
2021/10/05 08:10:49;;;;;;;6.22;5.07;;;;;;;;;;5035071;28;20656;-73
2021/10/05 08:13:14;;;;;;;9.32;5.30;;;;;;;;;;5043126;28;20246;-73
2021/10/05 08:15:40;;;;;;;8.60;4.80;;;;;;;;;;5031400;28;20246;-72
2021/10/05 08:18:06;;;;;;;5.88;4.97;;;;;;;;;;5036805;28;20193;-73
2021/10/05 08:20:31;;;;;;;6.85;4.90;;;;;;;;;;5032423;28;20669;-73
2021/10/05 08:22:57;;;;;;;10.65;5.57;;;;;;;;;;5034367;28;20331;-73
2021/10/05 08:25:23;;;;;;;7.28;5.07;;;;;;;;;;5031842;28;20239;-72
2021/10/05 08:27:49;;;;;;;8.90;4.75;;;;;;;;;;5043610;28;20187;-73
2021/10/05 08:30:16;;;;;;;9.25;5.57;;;;;;;;;;5030328;28;20210;-73
2021/10/05 08:32:42;;;;;;;6.28;5.05;;;;;;;;;;5036648;28;20695;-73
2021/10/05 08:35:08;;;;;;;7.75;5.53;;;;;;;;;;5027123;28;20193;-73
2021/10/05 08:37:33;;;;;;;6.65;5.20;;;;;;;;;;5041050;28;20185;-73
2021/10/05 08:39:59;;;;;;;6.47;4.53;;;;;;;;;;5037343;28;20185;-73
2021/10/05 08:42:25;;;;;;;7.63;5.25;;;;;;;;;;5030300;28;20189;-73
2021/10/05 08:44:51;;;;;;;7.13;5.47;;;;;;;;;;5034967;28;20494;-74
2021/10/05 08:47:18;;;;;;;9.75;5.20;;;;;;;;;;5031050;28;20204;-73
2021/10/05 08:49:45;;;;;;;5.78;4.80;;;;;;;;;;5039615;28;20229;-73
2021/10/05 08:52:10;;;;;;;6.32;5.03;;;;;;;;;;5027830;28;20186;-73
2021/10/05 08:54:38;;;;;;;6.55;4.60;;;;;;;;;;5037309;28;20212;-73
2021/10/05 08:57:04;;;;;;;8.65;5.00;;;;;;;;;;5025883;28;20751;-73
2021/10/05 08:59:29;;;;;;;5.43;4.50;;;;;;;;;;5035574;28;20277;-73
2021/10/05 09:01:57;;;;;;;8.07;4.18;;;;;;;;;;5026828;28;20283;-73
2021/10/05 09:04:22;;;;;;;5.35;4.45;;;;;;;;;;5035938;28;20185;-73
2021/10/05 09:06:55;;;;;;;6.88;4.55;;;;;;;;;;5026523;28;20580;-73
2021/10/05 09:09:21;;;;;;;5.53;3.90;;;;;;;;;;5039139;28;20221;-72
2021/10/05 09:11:49;;;;;;;5.72;4.00;;;;;;;;;;5040476;28;20199;-72
2021/10/05 09:14:15;;;;;;;7.30;3.80;;;;;;;;;;5029588;28;20216;-72
2021/10/05 09:16:40;;;;;;;6.13;3.85;;;;;;;;;;5033381;28;20585;-72
2021/10/05 09:19:11;;;;;;;4.90;3.42;;;;;;;;;;5027612;28;20185;-72
2021/10/05 09:21:49;;;;;;;10.25;3.70;;;;;;;;;;5043163;28;20228;-72
2021/10/05 09:24:21;;;;;;;5.57;3.25;;;;;;;;;;5028546;28;20221;-72
2021/10/05 09:26:57;;;;;;;4.78;3.00;;;;;;;;;;5039665;28;20269;-72
2021/10/05 09:29:34;;;;;;;5.90;3.05;;;;;;;;;;5039200;28;20626;-73
2021/10/05 09:32:04;;;;;;;4.97;3.03;;;;;;;;;;5040377;28;20181;-73
2021/10/05 09:34:45;;;;;;;5.32;3.40;;;;;;;;;;5036354;28;20193;-73
2021/10/05 09:37:15;;;;;;;3.55;2.78;;;;;;;;;;5045963;28;20660;-72
2021/10/05 09:39:51;;;;;;;7.15;3.38;;;;;;;;;;5035732;28;20271;-74
2021/10/05 09:42:20;;;;;;;5.53;3.28;;;;;;;;;;5039750;28;20663;-72
2021/10/05 09:44:54;;;;;;;5.40;2.90;;;;;;;;;;5033918;28;20591;-72
2021/10/05 09:47:40;;;;;;;6.00;2.83;;;;;;;;;;5040762;28;20199;-73
2021/10/05 09:50:24;;;;;;;7.90;2.95;;;;;;;;;;5034143;28;20213;-73
2021/10/05 09:52:55;;;;;;;8.43;2.83;;;;;;;;;;5040565;28;20182;-73
2021/10/05 09:55:23;;;;;;;8.48;2.50;;;;;;;;;;5030911;28;20196;-71
2021/10/05 09:57:49;;;;;;;5.18;1.77;;;;;;;;;;5039540;28;20217;-71
2021/10/05 10:00:15;;;;;;;4.97;1.83;;;;;;;;;;5031668;28;20590;-72
2021/10/05 10:02:42;;;;;;;3.50;1.45;;;;;;;;;;5040235;28;20193;-73
2021/10/05 10:05:10;;;;;;;7.57;1.42;;;;;;;;;;5031640;28;20190;-72
2021/10/05 10:07:41;;;;;;;5.90;1.48;;;;;;;;;;5044867;28;20186;-73
2021/10/05 10:10:10;;;;;;;5.55;1.70;;;;;;;;;;5036199;28;20676;-72
2021/10/05 10:12:38;;;;;;;6.50;2.00;;;;;;;;;;5046075;28;20194;-71
2021/10/05 10:15:04;;;;;;;4.05;1.50;;;;;;;;;;5037310;28;20217;-72
2021/10/05 10:17:31;;;;;;;5.03;1.33;;;;;;;;;;5037658;28;20296;-72
2021/10/05 10:19:56;;;;;;;7.68;1.40;;;;;;;;;;5039525;28;20182;-72
2021/10/05 10:22:22;;;;;;;5.38;1.40;;;;;;;;;;5032012;28;20196;-73
2021/10/05 10:24:53;;;;;;;5.47;1.42;;;;;;;;;;5036719;28;20560;-72
2021/10/05 10:27:20;;;;;;;2.72;1.15;;;;;;;;;;5034782;28;20192;-73
2021/10/05 10:29:46;;;;;;;4.28;1.38;;;;;;;;;;5044721;28;20330;-72
2021/10/05 10:32:20;;;;;;;5.80;1.30;;;;;;;;;;5030380;28;20345;-72
2021/10/05 10:34:59;;;;;;;4.00;1.00;;;;;;;;;;5039648;28;20180;-73
2021/10/05 10:37:25;;;;;;;3.03;1.13;;;;;;;;;;5031180;28;20196;-72
2021/10/05 10:39:53;;;;;;;2.28;1.10;;;;;;;;;;5042230;28;20543;-72
2021/10/05 10:42:29;;;;;;;4.88;1.20;;;;;;;;;;5026659;28;20190;-72
2021/10/05 10:44:56;;;;;;;5.38;1.20;;;;;;;;;;5040676;28;20185;-72
2021/10/05 10:47:23;;;;;;;4.95;1.13;;;;;;;;;;5029592;28;20194;-75
2021/10/05 10:49:56;;;;;;;3.25;0.95;;;;;;;;;;5040161;28;20624;-73
2021/10/05 10:52:43;;;;;;;2.53;1.20;;;;;;;;;;5033147;28;20487;-75
2021/10/05 10:55:15;;;;;;;2.47;0.90;;;;;;;;;;5040292;28;20194;-73
2021/10/05 10:57:43;;;;;;;4.38;1.02;;;;;;;;;;5033799;28;20762;-73
2021/10/05 11:00:21;;;;;;;6.03;1.17;;;;;;;;;;5040048;28;20502;-73
2021/10/05 11:02:52;;;;;;;5.10;0.98;;;;;;;;;;5032205;28;20284;-72
2021/10/05 11:05:24;;;;;;;3.08;1.10;;;;;;;;;;5037978;28;20336;-73
2021/10/05 11:07:51;;;;;;;3.55;1.70;;;;;;;;;;5032244;28;20186;-73
2021/10/05 11:10:22;;;;;;;3.55;0.93;;;;;;;;;;5038829;28;20213;-73
2021/10/05 11:12:53;;;;;;;2.53;1.38;;;;;;;;;;5041423;28;20585;-73
2021/10/05 11:15:39;;;;;;;2.20;1.30;;;;;;;;;;5041154;28;20232;-73
2021/10/05 11:18:08;;;;;;;4.55;1.00;;;;;;;;;;5032734;28;20244;-73
2021/10/05 11:20:36;;;;;;;3.17;1.20;;;;;;;;;;5038026;28;20260;-74
2021/10/05 11:23:03;;;;;;;3.65;1.08;;;;;;;;;;5041860;28;20186;-73
2021/10/05 11:25:29;;;;;;;5.00;0.95;;;;;;;;;;5030173;28;20201;-73
2021/10/05 11:27:55;;;;;;;3.65;1.08;;;;;;;;;;5045974;28;20621;-73
2021/10/05 11:30:20;;;;;;;3.45;1.48;;;;;;;;;;5031307;28;20212;-73
2021/10/05 11:32:50;;;;;;;1.67;0.80;;;;;;;;;;5039435;28;20189;-72
2021/10/05 11:35:15;;;;;;;2.83;0.80;;;;;;;;;;5036189;28;20186;-73
2021/10/05 11:37:41;;;;;;;4.20;1.00;;;;;;;;;;5039775;28;20531;-72
2021/10/05 11:40:07;;;;;;;4.00;0.90;;;;;;;;;;5038259;28;20190;-72
2021/10/05 11:42:32;;;;;;;3.58;0.90;;;;;;;;;;5042811;28;20198;-76
2021/10/05 11:45:05;;;;;;;3.38;1.00;;;;;;;;;;5031776;28;20190;-74
2021/10/05 11:47:31;;;;;;;4.43;0.70;;;;;;;;;;5042050;28;20646;-75
2021/10/05 11:50:03;;;;;;;4.45;0.88;;;;;;;;;;5032092;28;20221;-73
2021/10/05 11:52:31;;;;;;;2.88;0.93;;;;;;;;;;5040872;28;20193;-72
2021/10/05 11:54:58;;;;;;;5.05;1.25;;;;;;;;;;5035237;28;20186;-73
2021/10/05 11:57:29;;;;;;;5.63;0.80;;;;;;;;;;5038510;28;21376;-71
2021/10/05 12:00:00;;;;;;;1.13;0.65;;;;;;;;;;5045160;28;20234;-72
2021/10/05 12:02:26;;;;;;;6.15;0.80;;;;;;;;;;5033826;28;20719;-72
2021/10/05 12:04:54;;;;;;;2.60;0.80;;;;;;;;;;5040922;28;20193;-75
2021/10/05 12:07:21;;;;;;;4.70;0.70;;;;;;;;;;5031252;28;20205;-71
2021/10/05 12:09:49;;;;;;;4.43;0.85;;;;;;;;;;5042981;28;20236;-72
2021/10/05 12:12:17;;;;;;;2.50;0.60;;;;;;;;;;5035148;28;20675;-72
2021/10/05 12:14:43;;;;;;;4.47;0.90;;;;;;;;;;5035462;28;20182;-72
2021/10/05 12:17:17;;;;;;;1.98;0.57;;;;;;;;;;5037307;28;20210;-72
2021/10/05 12:19:46;;;;;;;4.43;0.80;;;;;;;;;;5039370;28;20181;-72
2021/10/05 12:22:17;;;;;;;2.90;0.88;;;;;;;;;;5033575;28;20280;-73
2021/10/05 12:24:46;;;;;;;3.35;0.93;;;;;;;;;;5040567;28;20189;-73
2021/10/05 12:27:25;;;;;;;3.38;0.45;;;;;;;;;;5028029;28;20185;-72
2021/10/05 12:30:12;;;;;;;0.73;0.50;;;;;;;;;;5039076;28;20629;-73
2021/10/05 12:32:41;;;;;;;2.78;1.13;;;;;;;;;;5038937;28;20630;-74
2021/10/05 12:35:38;;;;;;;1.95;0.70;;;;;;;;;;5042854;28;20197;-72
2021/10/05 12:38:18;;;;;;;2.88;0.60;;;;;;;;;;5036908;28;20186;-74
2021/10/05 12:40:43;;;;;;;1.80;0.80;;;;;;;;;;5043059;28;20165;-71
2021/10/05 12:43:10;;;;;;;3.60;1.08;;;;;;;;;;5033376;28;20486;-74
2021/10/05 12:45:39;;;;;;;2.53;0.90;;;;;;;;;;5042511;28;20180;-73
2021/10/05 12:48:05;;;;;;;3.03;0.80;;;;;;;;;;5031624;28;20213;-75
2021/10/05 12:50:33;;;;;;;6.18;1.15;;;;;;;;;;5037711;28;20228;-74
2021/10/05 12:53:02;;;;;;;3.30;1.00;;;;;;;;;;5034139;28;20181;-76
2021/10/05 12:55:28;;;;;;;3.97;0.90;;;;;;;;;;5042568;28;20188;-74
2021/10/05 12:57:57;;;;;;;6.30;1.08;;;;;;;;;;5040023;28;20650;-72
2021/10/05 13:00:25;;;;;;;2.88;0.98;;;;;;;;;;5041057;28;20185;-73
2021/10/05 13:02:51;;;;;;;3.83;0.80;;;;;;;;;;5044446;28;20186;-75
2021/10/05 13:05:18;;;;;;;3.80;0.88;;;;;;;;;;5032702;28;20560;-74
2021/10/05 13:07:44;;;;;;;1.02;0.77;;;;;;;;;;5042624;28;20185;-74
2021/10/05 13:10:10;;;;;;;3.22;0.90;;;;;;;;;;5037326;28;20232;-72
2021/10/05 13:12:36;;;;;;;2.30;0.80;;;;;;;;;;5044158;28;20186;-73
2021/10/05 13:15:02;;;;;;;2.22;0.85;;;;;;;;;;5036573;28;20337;-73
2021/10/05 13:17:27;;;;;;;2.08;1.20;;;;;;;;;;5042715;28;20199;-73
2021/10/05 13:19:52;;;;;;;4.03;0.80;;;;;;;;;;5033708;28;20172;-72
2021/10/05 13:22:18;;;;;;;3.85;1.58;;;;;;;;;;5043229;28;20315;-73
2021/10/05 13:24:45;;;;;;;3.28;0.73;;;;;;;;;;5038558;28;20197;-73
2021/10/05 13:27:11;;;;;;;3.90;0.73;;;;;;;;;;5043006;28;20215;-74
2021/10/05 13:29:37;;;;;;;2.95;0.70;;;;;;;;;;5034464;28;20229;-73
2021/10/05 13:32:02;;;;;;;1.80;1.00;;;;;;;;;;5041944;28;20177;-75
2021/10/05 13:34:28;;;;;;;3.30;0.90;;;;;;;;;;5047681;28;20189;-72
2021/10/05 13:36:55;;;;;;;3.00;0.85;;;;;;;;;;5032340;28;20186;-72
2021/10/05 13:39:21;;;;;;;2.75;0.88;;;;;;;;;;5040964;28;20178;-72
2021/10/05 13:41:47;;;;;;;1.60;1.05;;;;;;;;;;5037340;28;20248;-72
2021/10/05 13:44:12;;;;;;;3.22;1.20;;;;;;;;;;5038334;28;20332;-72
2021/10/05 13:46:38;;;;;;;2.22;0.90;;;;;;;;;;5038811;28;20196;-72
2021/10/05 13:49:03;;;;;;;2.85;1.00;;;;;;;;;;5039681;28;20210;-73
2021/10/05 13:51:28;;;;;;;2.58;1.00;;;;;;;;;;5036259;28;20195;-73
2021/10/05 13:53:54;;;;;;;4.03;1.02;;;;;;;;;;5043560;28;20189;-72
2021/10/05 13:56:19;;;;;;;2.45;1.15;;;;;;;;;;5034017;28;20287;-73
2021/10/05 13:58:44;;;;;;;3.67;1.58;;;;;;;;;;5039447;28;20312;-74
2021/10/05 14:01:10;;;;;;;2.22;1.10;;;;;;;;;;5025424;28;20586;-72
2021/10/05 14:03:35;;;;;;;3.47;0.98;;;;;;;;;;5034144;28;20641;-72
2021/10/05 14:06:00;;;;;;;2.67;0.90;;;;;;;;;;5042018;28;20274;-74
2021/10/05 14:08:26;;;;;;;5.05;1.20;;;;;;;;;;5029951;28;20792;-73
2021/10/05 14:10:51;;;;;;;2.63;1.20;;;;;;;;;;5039635;28;20620;-72
2021/10/05 14:13:16;;;;;;;4.25;1.20;;;;;;;;;;5028618;28;20549;-73
2021/10/05 14:15:42;;;;;;;1.67;1.10;;;;;;;;;;5042220;28;20621;-73
2021/10/05 14:18:08;;;;;;;7.03;1.20;;;;;;;;;;5032165;28;20185;-72
2021/10/05 14:20:35;;;;;;;5.53;1.13;;;;;;;;;;5036589;28;20625;-72
2021/10/05 14:23:00;;;;;;;2.95;1.17;;;;;;;;;;5029222;28;20197;-72
2021/10/05 14:25:25;;;;;;;8.07;1.13;;;;;;;;;;5035225;28;20265;-72
2021/10/05 14:27:51;;;;;;;3.80;1.17;;;;;;;;;;4328288;28;10000863;-72
2021/10/05 14:30:18;;;;;;;3.88;1.20;;;;;;;;;;5038769;28;20217;-74
2021/10/05 14:32:43;;;;;;;4.05;1.55;;;;;;;;;;5033596;28;20190;-72
2021/10/05 14:35:10;;;;;;;3.75;1.65;;;;;;;;;;5028903;28;20193;-72
2021/10/05 14:37:35;;;;;;;3.85;1.73;;;;;;;;;;5039566;28;20552;-73
2021/10/05 14:40:01;;;;;;;5.35;1.80;;;;;;;;;;5027513;28;20648;-73